Superior, Wyoming
Current Conditions -  °F | °C
As of 12:54 AM on Thursday 27 Nov 2014 (Local Time) from KRKS Reporting Station
Clear Clear  
Wind Chill: 30°   Ceiling: Unl
Heat Index: 36°   Visibility: 10mi
Dew Point: 21°   Wind: 7mph
Humidity: 55%   Direction: 200°SSW
Pressure: 30.35"   Gusts: NA
Location:  41.77°N, 108.98°W
Report Text: KRKS 270754Z AUTO 20006KT 10SM CLR 02/M06 A3035 RMK AO2 SLP265 T00221061
Loading
Personal Weather Stations






























Interactive Weather Map New forecast layout! Learn more

10-Day Weather Forecast

Advertisements
Track Severe Weather on mobile